Time,TemperatureF,DewpointF,PressureIn,WindDirection,WindDirectionDegrees,WindSpeedMPH,WindSpeedGustMPH,Humidity,HourlyPrecipIn,Conditions,Clouds,dailyrainin,SolarRadiationWatts/m^2,SoftwareType,DateUTC
2013-01-28 00:01:00,55.1,48.0,29.98,NNW,344,0.0,3.0,78,0.00,,,0.00,0,weatherlink.com 1.10,2013-01-28 07:01:00,
2013-01-28 00:16:00,55.1,48.0,29.98,NNW,344,0.0,0.0,78,0.00,,,0.00,0,weatherlink.com 1.10,2013-01-28 07:16:00,
2013-01-28 00:31:00,56.2,49.0,29.98,West,261,1.0,3.0,77,0.00,,,0.00,0,weatherlink.com 1.10,2013-01-28 07:31:00,
2013-01-28 00:46:00,56.3,49.0,29.97,West,268,0.0,1.0,77,0.00,,,0.00,0,weatherlink.com 1.10,2013-01-28 07:46:00,
2013-01-28 01:01:00,56.1,49.0,29.97,West,268,0.0,1.0,77,0.00,,,0.00,0,weatherlink.com 1.10,2013-01-28 08:01:00,
2013-01-28 01:16:00,55.8,49.0,29.97,West,268,0.0,0.0,78,0.00,,,0.00,0,weatherlink.com 1.10,2013-01-28 08:16:00,
2013-01-28 01:32:00,55.3,49.0,29.97,West,268,0.0,1.0,78,0.00,,,0.00,0,weatherlink.com 1.10,2013-01-28 08:32:00,
2013-01-28 01:46:00,55.5,49.0,29.97,West,264,1.0,2.0,79,0.00,,,0.00,0,weatherlink.com 1.10,2013-01-28 08:46:00,
2013-01-28 02:01:00,54.1,48.0,29.97,NNW,344,0.0,5.0,80,0.00,,,0.00,0,weatherlink.com 1.10,2013-01-28 09:01:00,
2013-01-28 02:16:00,54.1,48.0,29.97,NNW,344,0.0,1.0,80,0.00,,,0.00,0,weatherlink.com 1.10,2013-01-28 09:16:00,
2013-01-28 02:31:00,54.0,48.0,29.97,NNW,344,0.0,2.0,81,0.00,,,0.00,0,weatherlink.com 1.10,2013-01-28 09:31:00,
2013-01-28 02:46:00,53.9,48.0,29.97,NNW,344,0.0,1.0,80,0.00,,,0.00,0,weatherlink.com 1.10,2013-01-28 09:46:00,
2013-01-28 03:01:00,53.9,48.0,29.97,NNW,344,0.0,1.0,81,0.00,,,0.00,0,weatherlink.com 1.10,2013-01-28 10:01:00,
2013-01-28 03:17:00,53.7,48.0,29.97,NNW,344,0.0,2.0,81,0.00,,,0.00,0,weatherlink.com 1.10,2013-01-28 10:17:00,
2013-01-28 03:31:00,54.2,47.0,29.96,NNW,340,2.0,4.0,78,0.00,,,0.00,0,weatherlink.com 1.10,2013-01-28 10:31:00,
2013-01-28 03:47:00,54.1,47.0,29.96,NNW,340,4.0,5.0,78,0.00,,,0.00,0,weatherlink.com 1.10,2013-01-28 10:47:00,
2013-01-28 04:02:00,54.4,47.0,29.96,NNW,339,3.0,5.0,75,0.00,,,0.00,0,weatherlink.com 1.10,2013-01-28 11:02:00,
2013-01-28 04:17:00,54.4,46.0,29.96,NNW,327,3.0,5.0,74,0.00,,,0.00,0,weatherlink.com 1.10,2013-01-28 11:17:00,
2013-01-28 04:32:00,54.1,46.0,29.96,NNW,327,0.0,3.0,75,0.00,,,0.00,0,weatherlink.com 1.10,2013-01-28 11:32:00,
2013-01-28 04:47:00,53.9,46.0,29.96,NNW,327,1.0,4.0,74,0.00,,,0.00,0,weatherlink.com 1.10,2013-01-28 11:47:00,
2013-01-28 05:02:00,53.9,46.0,29.96,NNW,327,1.0,3.0,74,0.00,,,0.00,0,weatherlink.com 1.10,2013-01-28 12:02:00,
2013-01-28 05:17:00,53.7,46.0,29.95,NW,325,3.0,6.0,74,0.00,,,0.00,0,weatherlink.com 1.10,2013-01-28 12:17:00,
2013-01-28 05:32:00,53.9,46.0,29.95,NW,317,5.0,7.0,74,0.00,,,0.00,0,weatherlink.com 1.10,2013-01-28 12:32:00,
2013-01-28 05:47:00,54.4,46.0,29.96,WNW,295,4.0,9.0,72,0.00,,,0.00,0,weatherlink.com 1.10,2013-01-28 12:47:00,
2013-01-28 06:02:00,54.5,46.0,29.96,West,279,3.0,11.0,72,0.00,,,0.00,0,weatherlink.com 1.10,2013-01-28 13:02:00,
2013-01-28 06:17:00,54.4,46.0,29.96,WNW,293,7.0,12.0,72,0.00,,,0.00,0,weatherlink.com 1.10,2013-01-28 13:17:00,
2013-01-28 06:32:00,54.3,45.0,29.96,WNW,291,3.0,10.0,72,0.00,,,0.00,0,weatherlink.com 1.10,2013-01-28 13:32:00,
2013-01-28 06:47:00,54.1,45.0,29.97,WNW,292,1.0,13.0,72,0.00,,,0.00,0,weatherlink.com 1.10,2013-01-28 13:47:00,
2013-01-28 07:02:00,54.1,45.0,29.97,NW,307,4.0,9.0,72,0.00,,,0.00,0,weatherlink.com 1.10,2013-01-28 14:02:00,
2013-01-28 07:17:00,53.9,45.0,29.98,NW,305,2.0,8.0,73,0.00,,,0.00,0,weatherlink.com 1.10,2013-01-28 14:17:00,
2013-01-28 07:32:00,53.5,45.0,29.98,NW,305,2.0,9.0,73,0.00,,,0.00,11,weatherlink.com 1.10,2013-01-28 14:32:00,
2013-01-28 07:47:00,53.3,45.0,29.98,NW,304,1.0,6.0,74,0.00,,,0.00,19,weatherlink.com 1.10,2013-01-28 14:47:00,
2013-01-28 08:02:00,53.4,46.0,29.98,NW,304,2.0,6.0,75,0.00,,,0.00,23,weatherlink.com 1.10,2013-01-28 15:02:00,
2013-01-28 08:17:00,53.6,46.0,29.98,NNW,348,5.0,6.0,74,0.00,,,0.00,40,weatherlink.com 1.10,2013-01-28 15:17:00,
2013-01-28 08:32:00,53.7,46.0,29.98,NNW,338,0.0,6.0,75,0.00,,,0.00,25,weatherlink.com 1.10,2013-01-28 15:32:00,
2013-01-28 08:47:00,53.7,46.0,29.98,WNW,292,7.0,9.0,76,0.00,,,0.00,95,weatherlink.com 1.10,2013-01-28 15:47:00,
2013-01-28 09:17:00,53.6,45.0,29.99,NW,315,8.0,14.0,72,0.00,,,0.00,98,weatherlink.com 1.10,2013-01-28 16:17:00,
2013-01-28 09:32:00,53.7,44.0,29.99,NW,320,4.0,14.0,69,0.00,,,0.00,125,weatherlink.com 1.10,2013-01-28 16:32:00,
2013-01-28 09:47:00,53.8,44.0,29.98,NW,319,16.0,19.0,70,0.00,,,0.00,42,weatherlink.com 1.10,2013-01-28 16:47:00,
2013-01-28 10:17:00,52.1,46.0,29.99,WNW,284,9.0,17.0,79,0.02,,,0.02,179,weatherlink.com 1.10,2013-01-28 17:17:00,
2013-01-28 10:32:00,54.6,47.0,29.99,West,271,6.0,11.0,75,0.02,,,0.02,603,weatherlink.com 1.10,2013-01-28 17:32:00,
2013-01-28 10:47:00,55.7,46.0,29.98,NW,314,0.0,6.0,70,0.02,,,0.02,74,weatherlink.com 1.10,2013-01-28 17:47:00,
2013-01-28 11:02:00,53.7,45.0,29.99,NW,326,7.0,17.0,72,0.00,,,0.02,40,weatherlink.com 1.10,2013-01-28 18:02:00,
2013-01-28 11:17:00,49.4,45.0,30.01,NW,317,3.0,15.0,84,0.04,,,0.06,130,weatherlink.com 1.10,2013-01-28 18:17:00,
2013-01-28 11:32:00,48.5,45.0,30.01,NW,307,7.0,12.0,87,0.05,,,0.07,97,weatherlink.com 1.10,2013-01-28 18:32:00,
2013-01-28 11:48:00,49.3,46.0,30.01,NW,308,5.0,10.0,89,0.05,,,0.07,666,weatherlink.com 1.10,2013-01-28 18:48:00,
2013-01-28 12:03:00,52.1,46.0,30.00,NNW,348,6.0,13.0,80,0.05,,,0.07,668,weatherlink.com 1.10,2013-01-28 19:03:00,
2013-01-28 12:18:00,53.7,45.0,30.00,WNW,290,4.0,14.0,73,0.01,,,0.07,724,weatherlink.com 1.10,2013-01-28 19:18:00,
2013-01-28 12:33:00,54.8,45.0,29.99,NW,308,6.0,10.0,70,0.00,,,0.07,773,weatherlink.com 1.10,2013-01-28 19:33:00,
2013-01-28 12:48:00,54.2,44.0,29.98,WNW,291,3.0,12.0,68,0.00,,,0.07,348,weatherlink.com 1.10,2013-01-28 19:48:00,
2013-01-28 13:03:00,53.8,43.0,29.98,WNW,299,8.0,15.0,66,0.00,,,0.07,153,weatherlink.com 1.10,2013-01-28 20:03:00,
2013-01-28 13:18:00,51.4,43.0,29.98,West,271,15.0,27.0,72,0.00,,,0.07,153,weatherlink.com 1.10,2013-01-28 20:18:00,
2013-01-28 13:33:00,51.6,42.0,29.98,WNW,297,15.0,21.0,71,0.00,,,0.07,153,weatherlink.com 1.10,2013-01-28 20:33:00,
2013-01-28 13:48:00,52.1,43.0,29.98,WNW,294,14.0,17.0,71,0.00,,,0.07,153,weatherlink.com 1.10,2013-01-28 20:48:00,
2013-01-28 14:03:00,50.7,41.0,29.97,WNW,302,11.0,18.0,69,0.00,,,0.07,153,weatherlink.com 1.10,2013-01-28 21:03:00,
2013-01-28 14:18:00,50.6,40.0,29.98,WNW,290,9.0,23.0,67,0.00,,,0.07,153,weatherlink.com 1.10,2013-01-28 21:18:00,
2013-01-28 14:33:00,49.5,41.0,29.97,West,272,8.0,18.0,73,0.00,,,0.07,153,weatherlink.com 1.10,2013-01-28 21:33:00,
2013-01-28 14:48:00,50.1,38.0,29.98,WNW,286,9.0,22.0,64,0.00,,,0.07,153,weatherlink.com 1.10,2013-01-28 21:48:00,
2013-01-28 15:03:00,50.2,37.0,29.98,WSW,248,14.0,27.0,61,0.00,,,0.07,153,weatherlink.com 1.10,2013-01-28 22:03:00,
2013-01-28 15:18:00,48.1,37.0,29.99,WNW,286,8.0,28.0,65,0.00,,,0.07,153,weatherlink.com 1.10,2013-01-28 22:18:00,
2013-01-28 15:33:00,47.9,37.0,30.00,West,276,8.0,26.0,65,0.00,,,0.07,153,weatherlink.com 1.10,2013-01-28 22:33:00,
2013-01-28 15:48:00,46.4,39.0,30.00,NW,304,7.0,17.0,75,0.01,,,0.08,153,weatherlink.com 1.10,2013-01-28 22:48:00,
2013-01-28 16:03:00,48.4,37.0,30.00,WSW,258,8.0,13.0,64,0.01,,,0.08,153,weatherlink.com 1.10,2013-01-28 23:03:00,
2013-01-28 16:18:00,49.9,36.0,29.99,West,269,2.0,12.0,59,0.01,,,0.08,153,weatherlink.com 1.10,2013-01-28 23:18:00,
2013-01-28 16:33:00,50.1,34.0,29.99,WSW,242,6.0,14.0,54,0.01,,,0.08,153,weatherlink.com 1.10,2013-01-28 23:33:00,
2013-01-28 16:48:00,50.3,34.0,29.98,West,273,7.0,13.0,55,0.00,,,0.08,153,weatherlink.com 1.10,2013-01-28 23:48:00,
2013-01-28 17:03:00,49.9,34.0,29.98,West,279,5.0,14.0,54,0.00,,,0.08,153,weatherlink.com 1.10,2013-01-29 00:03:00,
2013-01-28 17:18:00,48.8,32.0,29.99,WNW,295,5.0,15.0,52,0.00,,,0.08,153,weatherlink.com 1.10,2013-01-29 00:18:00,
2013-01-28 17:33:00,48.6,32.0,29.99,SW,236,9.0,11.0,54,0.00,,,0.08,153,weatherlink.com 1.10,2013-01-29 00:33:00,
2013-01-28 17:48:00,48.4,32.0,29.99,West,263,7.0,18.0,53,0.00,,,0.08,153,weatherlink.com 1.10,2013-01-29 00:48:00,
2013-01-28 18:18:00,48.4,31.0,29.99,West,281,10.0,18.0,51,0.00,,,0.08,153,weatherlink.com 1.10,2013-01-29 01:18:00,
2013-01-28 18:33:00,48.1,31.0,29.99,West,273,9.0,10.0,52,0.00,,,0.08,153,weatherlink.com 1.10,2013-01-29 01:33:00,
2013-01-28 18:48:00,47.9,30.0,30.00,West,261,7.0,12.0,51,0.00,,,0.08,153,weatherlink.com 1.10,2013-01-29 01:48:00,
2013-01-28 19:03:00,47.9,30.0,30.01,West,272,6.0,16.0,51,0.00,,,0.08,153,weatherlink.com 1.10,2013-01-29 02:03:00,
2013-01-28 19:18:00,47.7,30.0,30.02,WSW,241,11.0,18.0,51,0.00,,,0.08,153,weatherlink.com 1.10,2013-01-29 02:18:00,
2013-01-28 19:34:00,47.1,31.0,30.02,West,277,4.0,11.0,54,0.00,,,0.08,153,weatherlink.com 1.10,2013-01-29 02:34:00,
2013-01-28 19:48:00,47.3,30.0,30.03,WSW,248,3.0,7.0,52,0.00,,,0.08,153,weatherlink.com 1.10,2013-01-29 02:48:00,
2013-01-28 20:03:00,47.0,30.0,30.03,WSW,249,4.0,8.0,53,0.00,,,0.08,153,weatherlink.com 1.10,2013-01-29 03:03:00,
2013-01-28 20:18:00,46.9,32.0,30.03,SW,223,3.0,11.0,56,0.00,,,0.08,153,weatherlink.com 1.10,2013-01-29 03:18:00,
2013-01-28 20:33:00,46.6,31.0,30.03,SW,233,5.0,9.0,56,0.00,,,0.08,153,weatherlink.com 1.10,2013-01-29 03:33:00,
2013-01-28 20:48:00,45.9,34.0,30.04,WSW,240,5.0,10.0,63,0.00,,,0.08,153,weatherlink.com 1.10,2013-01-29 03:48:00,
2013-01-28 21:03:00,45.2,35.0,30.04,SW,214,3.0,7.0,67,0.00,,,0.08,153,weatherlink.com 1.10,2013-01-29 04:03:00,
2013-01-28 21:18:00,45.1,35.0,30.04,SSW,206,2.0,6.0,67,0.00,,,0.08,153,weatherlink.com 1.10,2013-01-29 04:18:00,
2013-01-28 21:33:00,45.1,35.0,30.05,West,272,2.0,7.0,67,0.00,,,0.08,153,weatherlink.com 1.10,2013-01-29 04:33:00,
2013-01-28 21:49:00,44.7,33.0,30.06,West,272,5.0,11.0,65,0.00,,,0.08,153,weatherlink.com 1.10,2013-01-29 04:49:00,
2013-01-28 22:04:00,44.5,32.0,30.05,SW,221,5.0,12.0,62,0.00,,,0.08,153,weatherlink.com 1.10,2013-01-29 05:04:00,
2013-01-28 22:18:00,44.5,34.0,30.05,SSW,202,3.0,8.0,66,0.00,,,0.08,153,weatherlink.com 1.10,2013-01-29 05:18:00,
2013-01-28 22:33:00,44.4,34.0,30.05,SSW,207,1.0,5.0,66,0.00,,,0.08,153,weatherlink.com 1.10,2013-01-29 05:33:00,
2013-01-28 22:48:00,45.1,33.0,30.05,West,260,3.0,12.0,63,0.00,,,0.08,153,weatherlink.com 1.10,2013-01-29 05:48:00,
2013-01-28 23:04:00,45.1,31.0,30.05,WNW,287,6.0,13.0,59,0.00,,,0.08,153,weatherlink.com 1.10,2013-01-29 06:04:00,
2013-01-28 23:19:00,45.1,32.0,30.06,West,280,1.0,11.0,60,0.00,,,0.08,153,weatherlink.com 1.10,2013-01-29 06:19:00,
2013-01-28 23:33:00,44.7,33.0,30.06,WNW,288,2.0,3.0,63,0.00,,,0.08,153,weatherlink.com 1.10,2013-01-29 06:33:00,
2013-01-28 23:49:00,44.2,32.0,30.06,WSW,251,3.0,5.0,62,0.00,,,0.08,153,weatherlink.com 1.10,2013-01-29 06:49:00,